sensor_id;sensor_type;location;lat;lon;timestamp;pressure;altitude;pressure_sealevel;temperature;humidity
68712;BME280;55690;51.566;19.198;2023-04-03T00:00:33;102317.59;;;5.27;81.22
68712;BME280;55690;51.566;19.198;2023-04-03T00:04:40;102325.49;;;5.00;80.35
68712;BME280;55690;51.566;19.198;2023-04-03T00:08:42;102324.60;;;5.34;80.62
68712;BME280;55690;51.566;19.198;2023-04-03T00:12:43;102319.97;;;5.39;80.57
68712;BME280;55690;51.566;19.198;2023-04-03T00:16:48;102323.50;;;5.09;79.62
68712;BME280;55690;51.566;19.198;2023-04-03T00:20:54;102321.91;;;5.34;79.87
68712;BME280;55690;51.566;19.198;2023-04-03T00:25:01;102312.57;;;5.47;78.49
68712;BME280;55690;51.566;19.198;2023-04-03T00:29:07;102311.34;;;5.26;78.95
68712;BME280;55690;51.566;19.198;2023-04-03T00:33:13;102321.15;;;5.29;79.02
68712;BME280;55690;51.566;19.198;2023-04-03T00:37:19;102324.96;;;4.86;78.58
68712;BME280;55690;51.566;19.198;2023-04-03T00:41:25;102329.77;;;5.09;78.26
68712;BME280;55690;51.566;19.198;2023-04-03T00:45:38;102328.96;;;5.06;79.30
68712;BME280;55690;51.566;19.198;2023-04-03T00:49:41;102327.35;;;4.98;78.52
68712;BME280;55690;51.566;19.198;2023-04-03T00:53:50;102325.18;;;4.77;77.79
68712;BME280;55690;51.566;19.198;2023-04-03T00:57:55;102331.84;;;4.98;77.88
68712;BME280;55690;51.566;19.198;2023-04-03T01:01:57;102332.34;;;4.78;77.81
68712;BME280;55690;51.566;19.198;2023-04-03T01:06:03;102344.87;;;4.79;78.76
68712;BME280;55690;51.566;19.198;2023-04-03T01:10:12;102340.95;;;4.92;78.69
68712;BME280;55690;51.566;19.198;2023-04-03T01:14:16;102358.82;;;4.59;79.31
68712;BME280;55690;51.566;19.198;2023-04-03T01:18:23;102349.13;;;4.52;79.33
68712;BME280;55690;51.566;19.198;2023-04-03T01:22:32;102352.73;;;4.51;78.48
68712;BME280;55690;51.566;19.198;2023-04-03T01:26:36;102348.95;;;4.21;77.97
68712;BME280;55690;51.566;19.198;2023-04-03T01:34:52;102359.40;;;4.33;78.86
68712;BME280;55690;51.566;19.198;2023-04-03T01:38:55;102362.09;;;4.33;78.15
68712;BME280;55690;51.566;19.198;2023-04-03T01:42:58;102365.89;;;3.83;78.76
68712;BME280;55690;51.566;19.198;2023-04-03T01:47:06;102372.22;;;4.22;78.99
68712;BME280;55690;51.566;19.198;2023-04-03T01:51:10;102365.92;;;3.82;78.94
68712;BME280;55690;51.566;19.198;2023-04-03T01:55:16;102372.20;;;4.24;78.72
68712;BME280;55690;51.566;19.198;2023-04-03T01:59:23;102373.52;;;4.03;78.46
68712;BME280;55690;51.566;19.198;2023-04-03T02:03:29;102371.37;;;4.20;78.93
68712;BME280;55690;51.566;19.198;2023-04-03T02:07:35;102378.36;;;4.29;78.53
68712;BME280;55690;51.566;19.198;2023-04-03T02:11:41;102376.72;;;3.79;77.81
68712;BME280;55690;51.566;19.198;2023-04-03T02:15:47;102379.94;;;3.96;78.48
68712;BME280;55690;51.566;19.198;2023-04-03T02:19:54;102379.53;;;3.73;78.05
68712;BME280;55690;51.566;19.198;2023-04-03T02:24:00;102385.37;;;3.93;77.54
68712;BME280;55690;51.566;19.198;2023-04-03T02:28:06;102386.93;;;3.60;78.71
68712;BME280;55690;51.566;19.198;2023-04-03T02:32:13;102392.34;;;3.58;78.02
68712;BME280;55690;51.566;19.198;2023-04-03T02:36:19;102395.16;;;3.51;77.50
68712;BME280;55690;51.566;19.198;2023-04-03T02:40:25;102392.73;;;3.85;77.82
68712;BME280;55690;51.566;19.198;2023-04-03T02:44:31;102399.15;;;4.21;76.95
68712;BME280;55690;51.566;19.198;2023-04-03T02:48:37;102401.65;;;3.87;76.64
68712;BME280;55690;51.566;19.198;2023-04-03T02:52:44;102406.27;;;3.79;77.77
68712;BME280;55690;51.566;19.198;2023-04-03T02:56:50;102410.62;;;3.86;76.18
68712;BME280;55690;51.566;19.198;2023-04-03T03:00:56;102418.23;;;4.07;76.85
68712;BME280;55690;51.566;19.198;2023-04-03T03:05:03;102422.94;;;3.96;76.17
68712;BME280;55690;51.566;19.198;2023-04-03T03:09:08;102423.48;;;3.68;77.45
68712;BME280;55690;51.566;19.198;2023-04-03T03:13:15;102426.30;;;3.61;77.03
68712;BME280;55690;51.566;19.198;2023-04-03T03:17:21;102426.98;;;3.74;77.29
68712;BME280;55690;51.566;19.198;2023-04-03T03:21:27;102433.90;;;3.87;75.77
68712;BME280;55690;51.566;19.198;2023-04-03T03:25:33;102429.97;;;4.03;75.43
68712;BME280;55690;51.566;19.198;2023-04-03T03:29:39;102431.79;;;3.55;76.58
68712;BME280;55690;51.566;19.198;2023-04-03T03:33:46;102432.40;;;3.71;75.31
68712;BME280;55690;51.566;19.198;2023-04-03T03:37:52;102437.77;;;3.71;76.05
68712;BME280;55690;51.566;19.198;2023-04-03T03:41:58;102438.46;;;3.82;76.33
68712;BME280;55690;51.566;19.198;2023-04-03T03:46:04;102435.34;;;4.03;75.29
68712;BME280;55690;51.566;19.198;2023-04-03T03:50:10;102437.85;;;4.12;75.18
68712;BME280;55690;51.566;19.198;2023-04-03T03:54:16;102443.38;;;4.05;74.60
68712;BME280;55690;51.566;19.198;2023-04-03T03:58:23;102443.91;;;4.23;74.70
68712;BME280;55690;51.566;19.198;2023-04-03T04:02:29;102443.97;;;4.20;74.47
68712;BME280;55690;51.566;19.198;2023-04-03T04:06:35;102456.36;;;3.83;75.33
68712;BME280;55690;51.566;19.198;2023-04-03T04:10:41;102457.36;;;3.77;75.23
68712;BME280;55690;51.566;19.198;2023-04-03T04:14:47;102451.67;;;3.92;74.71
68712;BME280;55690;51.566;19.198;2023-04-03T04:18:54;102460.41;;;4.04;74.79
68712;BME280;55690;51.566;19.198;2023-04-03T04:23:00;102468.93;;;3.81;74.75
68712;BME280;55690;51.566;19.198;2023-04-03T04:27:06;102473.31;;;3.86;74.92
68712;BME280;55690;51.566;19.198;2023-04-03T04:31:12;102466.39;;;3.73;74.55
68712;BME280;55690;51.566;19.198;2023-04-03T04:35:19;102476.91;;;3.85;73.98
68712;BME280;55690;51.566;19.198;2023-04-03T04:39:25;102470.52;;;3.91;74.38
68712;BME280;55690;51.566;19.198;2023-04-03T04:43:31;102478.54;;;3.92;74.01
68712;BME280;55690;51.566;19.198;2023-04-03T04:47:37;102475.52;;;3.63;74.80
68712;BME280;55690;51.566;19.198;2023-04-03T04:51:43;102486.11;;;3.72;75.42
68712;BME280;55690;51.566;19.198;2023-04-03T04:55:49;102480.97;;;3.58;74.88
68712;BME280;55690;51.566;19.198;2023-04-03T04:59:56;102475.65;;;3.55;74.49
68712;BME280;55690;51.566;19.198;2023-04-03T05:04:02;102490.30;;;3.88;75.31
68712;BME280;55690;51.566;19.198;2023-04-03T05:08:09;102503.63;;;3.44;74.99
68712;BME280;55690;51.566;19.198;2023-04-03T05:12:14;102498.28;;;3.42;74.58
68712;BME280;55690;51.566;19.198;2023-04-03T05:16:20;102505.40;;;3.45;74.44
68712;BME280;55690;51.566;19.198;2023-04-03T05:20:27;102505.45;;;3.42;75.56
68712;BME280;55690;51.566;19.198;2023-04-03T05:24:33;102510.00;;;3.37;74.75
68712;BME280;55690;51.566;19.198;2023-04-03T05:28:39;102514.04;;;3.62;74.66
68712;BME280;55690;51.566;19.198;2023-04-03T05:32:46;102515.61;;;3.75;74.49
68712;BME280;55690;51.566;19.198;2023-04-03T05:36:52;102519.16;;;3.23;74.06
68712;BME280;55690;51.566;19.198;2023-04-03T05:40:57;102523.38;;;3.40;73.88
68712;BME280;55690;51.566;19.198;2023-04-03T05:45:04;102517.08;;;3.42;74.34
68712;BME280;55690;51.566;19.198;2023-04-03T05:49:10;102520.19;;;4.18;73.08
68712;BME280;55690;51.566;19.198;2023-04-03T05:53:22;102517.09;;;4.38;72.96
68712;BME280;55690;51.566;19.198;2023-04-03T05:57:25;102522.05;;;4.59;72.02
68712;BME280;55690;51.566;19.198;2023-04-03T06:01:28;102518.98;;;3.88;71.80
68712;BME280;55690;51.566;19.198;2023-04-03T06:05:34;102524.09;;;4.46;72.45
68712;BME280;55690;51.566;19.198;2023-04-03T06:09:41;102521.38;;;4.48;72.21
68712;BME280;55690;51.566;19.198;2023-04-03T06:13:47;102531.60;;;4.30;71.25
68712;BME280;55690;51.566;19.198;2023-04-03T06:17:53;102533.16;;;4.84;71.86
68712;BME280;55690;51.566;19.198;2023-04-03T06:21:59;102533.38;;;4.75;71.66
68712;BME280;55690;51.566;19.198;2023-04-03T06:26:05;102532.41;;;4.77;71.16
68712;BME280;55690;51.566;19.198;2023-04-03T06:30:12;102538.06;;;4.65;70.03
68712;BME280;55690;51.566;19.198;2023-04-03T06:34:18;102540.05;;;4.97;69.87
68712;BME280;55690;51.566;19.198;2023-04-03T06:38:24;102534.48;;;5.43;68.38
68712;BME280;55690;51.566;19.198;2023-04-03T06:42:30;102538.11;;;5.42;68.17
68712;BME280;55690;51.566;19.198;2023-04-03T06:46:38;102549.66;;;5.47;68.39
68712;BME280;55690;51.566;19.198;2023-04-03T06:50:42;102543.57;;;6.10;66.24
68712;BME280;55690;51.566;19.198;2023-04-03T06:54:49;102543.59;;;6.74;65.42
68712;BME280;55690;51.566;19.198;2023-04-03T06:58:57;102554.52;;;6.69;64.41
68712;BME280;55690;51.566;19.198;2023-04-03T07:03:01;102554.21;;;6.80;65.46
68712;BME280;55690;51.566;19.198;2023-04-03T07:07:07;102549.09;;;7.00;64.01
68712;BME280;55690;51.566;19.198;2023-04-03T07:11:14;102562.37;;;7.08;62.05
68712;BME280;55690;51.566;19.198;2023-04-03T07:15:20;102562.20;;;8.47;60.85
68712;BME280;55690;51.566;19.198;2023-04-03T07:19:26;102556.88;;;8.19;62.18
68712;BME280;55690;51.566;19.198;2023-04-03T07:23:32;102559.16;;;8.80;61.09
68712;BME280;55690;51.566;19.198;2023-04-03T07:27:38;102544.85;;;8.53;60.15
68712;BME280;55690;51.566;19.198;2023-04-03T07:31:44;102563.11;;;8.71;58.61
68712;BME280;55690;51.566;19.198;2023-04-03T07:35:51;102570.61;;;8.13;58.05
68712;BME280;55690;51.566;19.198;2023-04-03T07:39:57;102581.07;;;7.97;57.62
68712;BME280;55690;51.566;19.198;2023-04-03T07:44:03;102582.88;;;7.71;57.61
68712;BME280;55690;51.566;19.198;2023-04-03T07:48:13;102576.59;;;8.73;58.00
68712;BME280;55690;51.566;19.198;2023-04-03T07:52:15;102581.77;;;8.29;57.15
68712;BME280;55690;51.566;19.198;2023-04-03T07:56:22;102575.09;;;8.89;56.26
68712;BME280;55690;51.566;19.198;2023-04-03T08:00:28;102575.50;;;7.48;57.87
68712;BME280;55690;51.566;19.198;2023-04-03T08:04:34;102591.04;;;7.69;57.04
68712;BME280;55690;51.566;19.198;2023-04-03T08:08:40;102586.23;;;7.79;57.91
68712;BME280;55690;51.566;19.198;2023-04-03T08:12:47;102583.51;;;8.05;58.78
68712;BME280;55690;51.566;19.198;2023-04-03T08:16:52;102589.13;;;7.99;56.90
68712;BME280;55690;51.566;19.198;2023-04-03T08:20:59;102586.35;;;8.53;56.48
68712;BME280;55690;51.566;19.198;2023-04-03T08:25:06;102590.61;;;6.96;54.41
68712;BME280;55690;51.566;19.198;2023-04-03T08:29:11;102602.22;;;7.85;56.28
68712;BME280;55690;51.566;19.198;2023-04-03T08:33:17;102598.61;;;7.58;55.50
68712;BME280;55690;51.566;19.198;2023-04-03T08:37:23;102606.34;;;7.13;55.17
68712;BME280;55690;51.566;19.198;2023-04-03T08:41:33;102615.09;;;6.59;56.54
68712;BME280;55690;51.566;19.198;2023-04-03T08:45:50;102619.52;;;8.07;56.00
68712;BME280;55690;51.566;19.198;2023-04-03T08:50:04;102626.91;;;8.55;56.21
68712;BME280;55690;51.566;19.198;2023-04-03T08:54:20;102620.64;;;7.74;54.19
68712;BME280;55690;51.566;19.198;2023-04-03T08:58:25;102625.09;;;8.55;56.20
68712;BME280;55690;51.566;19.198;2023-04-03T09:02:33;102618.27;;;7.91;55.40
68712;BME280;55690;51.566;19.198;2023-04-03T09:06:36;102608.50;;;9.36;57.11
68712;BME280;55690;51.566;19.198;2023-04-03T09:10:40;102612.07;;;9.13;53.49
68712;BME280;55690;51.566;19.198;2023-04-03T09:27:24;102625.45;;;8.70;52.84
68712;BME280;55690;51.566;19.198;2023-04-03T09:31:34;102623.34;;;9.26;53.84
68712;BME280;55690;51.566;19.198;2023-04-03T09:35:37;102611.09;;;9.61;54.55
68712;BME280;55690;51.566;19.198;2023-04-03T09:39:49;102627.99;;;8.74;53.17
68712;BME280;55690;51.566;19.198;2023-04-03T09:43:53;102632.70;;;9.17;54.47
68712;BME280;55690;51.566;19.198;2023-04-03T09:56:27;102625.06;;;9.05;54.00
68712;BME280;55690;51.566;19.198;2023-04-03T10:00:36;102641.71;;;9.18;52.71
68712;BME280;55690;51.566;19.198;2023-04-03T10:04:41;102639.27;;;9.57;54.15
68712;BME280;55690;51.566;19.198;2023-04-03T10:08:58;102644.07;;;8.27;53.38
68712;BME280;55690;51.566;19.198;2023-04-03T10:13:05;102632.53;;;8.98;54.19
68712;BME280;55690;51.566;19.198;2023-04-03T10:25:48;102619.16;;;8.44;53.81
68712;BME280;55690;51.566;19.198;2023-04-03T10:29:58;102629.38;;;8.86;55.02
68712;BME280;55690;51.566;19.198;2023-04-03T10:35:33;102622.09;;;9.11;54.38
68712;BME280;55690;51.566;19.198;2023-04-03T10:56:32;102625.52;;;8.93;54.34
68712;BME280;55690;51.566;19.198;2023-04-03T11:00:42;102624.72;;;8.66;55.56
68712;BME280;55690;51.566;19.198;2023-04-03T11:04:48;102629.81;;;9.22;55.33
68712;BME280;55690;51.566;19.198;2023-04-03T11:08:59;102620.05;;;8.18;55.23
68712;BME280;55690;51.566;19.198;2023-04-03T11:13:17;102613.46;;;8.77;54.33
68712;BME280;55690;51.566;19.198;2023-04-03T11:17:28;102601.48;;;9.30;56.37
68712;BME280;55690;51.566;19.198;2023-04-03T11:21:37;102605.81;;;9.80;55.35
68712;BME280;55690;51.566;19.198;2023-04-03T11:25:42;102609.02;;;8.99;54.60
68712;BME280;55690;51.566;19.198;2023-04-03T11:29:46;102610.14;;;8.68;53.89
68712;BME280;55690;51.566;19.198;2023-04-03T11:38:05;102609.48;;;9.10;53.34
68712;BME280;55690;51.566;19.198;2023-04-03T11:46:21;102590.11;;;8.97;51.41
68712;BME280;55690;51.566;19.198;2023-04-03T11:54:45;102589.04;;;9.25;52.03
68712;BME280;55690;51.566;19.198;2023-04-03T12:07:19;102605.09;;;8.59;52.28
68712;BME280;55690;51.566;19.198;2023-04-03T12:11:29;102603.61;;;8.99;51.75
68712;BME280;55690;51.566;19.198;2023-04-03T12:19:47;102604.15;;;9.09;52.55
68712;BME280;55690;51.566;19.198;2023-04-03T12:28:05;102582.92;;;9.87;51.09
68712;BME280;55690;51.566;19.198;2023-04-03T12:36:32;102593.75;;;8.48;51.83
68712;BME280;55690;51.566;19.198;2023-04-03T12:49:01;102602.36;;;8.84;52.06
68712;BME280;55690;51.566;19.198;2023-04-03T12:53:12;102593.69;;;9.21;50.95
68712;BME280;55690;51.566;19.198;2023-04-03T12:57:23;102602.72;;;8.98;52.27
68712;BME280;55690;51.566;19.198;2023-04-03T13:01:25;102603.54;;;9.24;52.00
68712;BME280;55690;51.566;19.198;2023-04-03T13:05:28;102602.36;;;9.31;52.08
68712;BME280;55690;51.566;19.198;2023-04-03T13:09:31;102603.41;;;8.80;50.60
68712;BME280;55690;51.566;19.198;2023-04-03T13:13:33;102604.23;;;8.82;51.50
68712;BME280;55690;51.566;19.198;2023-04-03T13:17:38;102609.03;;;8.74;51.23
68712;BME280;55690;51.566;19.198;2023-04-03T13:21:41;102605.95;;;8.85;52.78
68712;BME280;55690;51.566;19.198;2023-04-03T13:25:45;102605.26;;;9.03;53.85
68712;BME280;55690;51.566;19.198;2023-04-03T13:29:53;102602.06;;;8.92;52.88
68712;BME280;55690;51.566;19.198;2023-04-03T13:34:07;102599.13;;;8.98;52.10
68712;BME280;55690;51.566;19.198;2023-04-03T13:42:29;102602.15;;;8.14;52.81
68712;BME280;55690;51.566;19.198;2023-04-03T13:46:30;102605.29;;;8.27;53.09
68712;BME280;55690;51.566;19.198;2023-04-03T13:50:32;102603.92;;;8.15;53.23
68712;BME280;55690;51.566;19.198;2023-04-03T13:54:38;102605.69;;;8.16;53.22
68712;BME280;55690;51.566;19.198;2023-04-03T14:02:55;102598.55;;;8.40;53.16
68712;BME280;55690;51.566;19.198;2023-04-03T14:06:58;102599.89;;;8.53;54.31
68712;BME280;55690;51.566;19.198;2023-04-03T14:11:00;102591.17;;;8.93;51.43
68712;BME280;55690;51.566;19.198;2023-04-03T14:15:04;102586.39;;;8.25;51.84
68712;BME280;55690;51.566;19.198;2023-04-03T14:19:07;102590.97;;;8.23;53.35
68712;BME280;55690;51.566;19.198;2023-04-03T14:23:12;102589.60;;;8.38;51.78
68712;BME280;55690;51.566;19.198;2023-04-03T14:27:19;102601.76;;;8.51;52.64
68712;BME280;55690;51.566;19.198;2023-04-03T14:31:22;102598.42;;;8.68;52.32
68712;BME280;55690;51.566;19.198;2023-04-03T14:35:25;102597.29;;;8.50;52.48
68712;BME280;55690;51.566;19.198;2023-04-03T14:39:27;102598.68;;;8.62;52.19
68712;BME280;55690;51.566;19.198;2023-04-03T14:43:29;102587.41;;;8.97;52.46
68712;BME280;55690;51.566;19.198;2023-04-03T14:47:32;102592.45;;;8.33;52.98
68712;BME280;55690;51.566;19.198;2023-04-03T14:51:33;102595.52;;;7.70;52.77
68712;BME280;55690;51.566;19.198;2023-04-03T14:55:35;102595.27;;;7.78;52.04
68712;BME280;55690;51.566;19.198;2023-04-03T14:59:37;102595.29;;;8.29;52.96
68712;BME280;55690;51.566;19.198;2023-04-03T15:03:39;102587.68;;;8.15;52.94
68712;BME280;55690;51.566;19.198;2023-04-03T15:07:45;102590.47;;;7.86;52.75
68712;BME280;55690;51.566;19.198;2023-04-03T15:11:50;102584.75;;;7.95;52.96
68712;BME280;55690;51.566;19.198;2023-04-03T15:15:52;102603.65;;;8.23;53.54
68712;BME280;55690;51.566;19.198;2023-04-03T15:19:54;102593.96;;;7.89;53.07
68712;BME280;55690;51.566;19.198;2023-04-03T15:23:56;102588.06;;;8.29;53.25
68712;BME280;55690;51.566;19.198;2023-04-03T15:27:59;102587.32;;;7.99;53.29
68712;BME280;55690;51.566;19.198;2023-04-03T15:32:01;102599.70;;;8.33;54.97
68712;BME280;55690;51.566;19.198;2023-04-03T15:36:04;102599.98;;;8.75;54.38
68712;BME280;55690;51.566;19.198;2023-04-03T15:40:08;102573.70;;;8.77;53.86
68712;BME280;55690;51.566;19.198;2023-04-03T15:44:09;102593.48;;;9.04;53.90
68712;BME280;55690;51.566;19.198;2023-04-03T15:48:12;102585.20;;;8.60;54.03
68712;BME280;55690;51.566;19.198;2023-04-03T15:52:14;102580.66;;;8.61;52.72
68712;BME280;55690;51.566;19.198;2023-04-03T15:56:15;102585.56;;;8.23;53.58
68712;BME280;55690;51.566;19.198;2023-04-03T16:00:17;102581.34;;;8.16;53.20
68712;BME280;55690;51.566;19.198;2023-04-03T16:04:19;102587.71;;;7.87;53.62
68712;BME280;55690;51.566;19.198;2023-04-03T16:08:22;102584.75;;;7.95;54.75
68712;BME280;55690;51.566;19.198;2023-04-03T16:12:24;102588.54;;;7.89;55.04
68712;BME280;55690;51.566;19.198;2023-04-03T16:16:26;102589.91;;;8.03;55.57
68712;BME280;55690;51.566;19.198;2023-04-03T16:20:28;102594.51;;;8.25;55.33
68712;BME280;55690;51.566;19.198;2023-04-03T16:24:30;102589.49;;;7.88;56.02
68712;BME280;55690;51.566;19.198;2023-04-03T16:28:33;102599.52;;;7.85;56.05
68712;BME280;55690;51.566;19.198;2023-04-03T16:32:35;102606.70;;;7.86;56.00
68712;BME280;55690;51.566;19.198;2023-04-03T16:36:37;102606.75;;;7.84;56.53
68712;BME280;55690;51.566;19.198;2023-04-03T16:40:39;102602.43;;;7.51;58.02
68712;BME280;55690;51.566;19.198;2023-04-03T16:44:41;102604.91;;;7.58;55.95
68712;BME280;55690;51.566;19.198;2023-04-03T16:48:42;102594.79;;;7.91;56.43
68712;BME280;55690;51.566;19.198;2023-04-03T16:52:49;102595.41;;;7.73;56.39
68712;BME280;55690;51.566;19.198;2023-04-03T16:56:55;102589.11;;;7.45;56.40
68712;BME280;55690;51.566;19.198;2023-04-03T17:01:11;102599.30;;;7.64;57.18
68712;BME280;55690;51.566;19.198;2023-04-03T17:05:13;102595.66;;;7.92;57.17
68712;BME280;55690;51.566;19.198;2023-04-03T17:09:14;102598.09;;;8.01;56.52
68712;BME280;55690;51.566;19.198;2023-04-03T17:13:19;102593.75;;;7.69;56.32
68712;BME280;55690;51.566;19.198;2023-04-03T17:17:26;102607.96;;;8.02;56.11
68712;BME280;55690;51.566;19.198;2023-04-03T17:21:32;102602.25;;;7.29;57.03
68712;BME280;55690;51.566;19.198;2023-04-03T17:25:38;102609.28;;;7.34;57.27
68712;BME280;55690;51.566;19.198;2023-04-03T17:29:44;102615.58;;;7.35;57.35
68712;BME280;55690;51.566;19.198;2023-04-03T17:33:50;102620.23;;;7.30;56.72
68712;BME280;55690;51.566;19.198;2023-04-03T17:37:56;102619.57;;;7.22;56.92
68712;BME280;55690;51.566;19.198;2023-04-03T17:42:02;102626.78;;;7.21;56.84
68712;BME280;55690;51.566;19.198;2023-04-03T17:46:10;102640.73;;;6.75;59.08
68712;BME280;55690;51.566;19.198;2023-04-03T17:50:15;102640.27;;;6.92;58.91
68712;BME280;55690;51.566;19.198;2023-04-03T17:54:21;102635.76;;;6.92;59.06
68712;BME280;55690;51.566;19.198;2023-04-03T17:58:27;102640.73;;;6.75;59.65
68712;BME280;55690;51.566;19.198;2023-04-03T18:02:33;102649.05;;;6.67;59.46
68712;BME280;55690;51.566;19.198;2023-04-03T18:06:44;102645.97;;;6.81;60.08
68712;BME280;55690;51.566;19.198;2023-04-03T18:10:46;102647.11;;;7.04;60.77
68712;BME280;55690;51.566;19.198;2023-04-03T18:14:52;102641.59;;;6.45;60.67
68712;BME280;55690;51.566;19.198;2023-04-03T18:18:58;102642.04;;;6.60;60.70
68712;BME280;55690;51.566;19.198;2023-04-03T18:23:04;102647.24;;;6.68;60.19
68712;BME280;55690;51.566;19.198;2023-04-03T18:27:13;102650.30;;;6.54;61.75
68712;BME280;55690;51.566;19.198;2023-04-03T18:31:17;102656.66;;;6.52;61.70
68712;BME280;55690;51.566;19.198;2023-04-03T18:35:23;102649.37;;;6.55;60.96
68712;BME280;55690;51.566;19.198;2023-04-03T18:39:29;102657.02;;;6.72;61.32
68712;BME280;55690;51.566;19.198;2023-04-03T18:43:35;102658.12;;;6.65;61.90
68712;BME280;55690;51.566;19.198;2023-04-03T18:47:41;102651.95;;;6.60;61.96
68712;BME280;55690;51.566;19.198;2023-04-03T18:51:48;102656.34;;;6.64;61.33
68712;BME280;55690;51.566;19.198;2023-04-03T18:55:54;102668.88;;;6.32;62.56
68712;BME280;55690;51.566;19.198;2023-04-03T19:00:00;102658.88;;;6.02;63.73
68712;BME280;55690;51.566;19.198;2023-04-03T19:04:07;102657.14;;;5.99;62.80
68712;BME280;55690;51.566;19.198;2023-04-03T19:08:13;102665.02;;;5.68;64.57
68712;BME280;55690;51.566;19.198;2023-04-03T19:12:18;102664.76;;;6.18;63.70
68712;BME280;55690;51.566;19.198;2023-04-03T19:16:25;102661.46;;;5.66;63.89
68712;BME280;55690;51.566;19.198;2023-04-03T19:20:31;102660.76;;;5.60;64.30
68712;BME280;55690;51.566;19.198;2023-04-03T19:24:37;102660.91;;;5.52;64.73
68712;BME280;55690;51.566;19.198;2023-04-03T19:28:43;102665.87;;;5.30;64.99
68712;BME280;55690;51.566;19.198;2023-04-03T19:32:50;102666.88;;;5.25;65.23
68712;BME280;55690;51.566;19.198;2023-04-03T19:36:55;102673.48;;;5.12;66.26
68712;BME280;55690;51.566;19.198;2023-04-03T19:41:10;102669.73;;;5.60;65.27
68712;BME280;55690;51.566;19.198;2023-04-03T19:45:12;102667.55;;;5.36;65.61
68712;BME280;55690;51.566;19.198;2023-04-03T19:49:18;102681.68;;;5.47;65.14
68712;BME280;55690;51.566;19.198;2023-04-03T19:53:20;102675.87;;;5.25;65.40
68712;BME280;55690;51.566;19.198;2023-04-03T19:57:28;102682.05;;;4.86;66.16
68712;BME280;55690;51.566;19.198;2023-04-03T20:01:33;102678.61;;;5.22;65.23
68712;BME280;55690;51.566;19.198;2023-04-03T20:05:39;102682.70;;;5.42;65.01
68712;BME280;55690;51.566;19.198;2023-04-03T20:09:45;102681.49;;;5.15;65.43
68712;BME280;55690;51.566;19.198;2023-04-03T20:13:52;102677.05;;;4.67;66.11
68712;BME280;55690;51.566;19.198;2023-04-03T20:17:57;102678.10;;;4.59;67.01
68712;BME280;55690;51.566;19.198;2023-04-03T20:22:04;102689.99;;;4.93;66.04
68712;BME280;55690;51.566;19.198;2023-04-03T20:26:18;102681.38;;;4.76;66.70
68712;BME280;55690;51.566;19.198;2023-04-03T20:30:23;102678.48;;;4.85;66.22
68712;BME280;55690;51.566;19.198;2023-04-03T20:34:25;102680.79;;;4.59;66.55
68712;BME280;55690;51.566;19.198;2023-04-03T20:38:28;102680.20;;;4.42;66.96
68712;BME280;55690;51.566;19.198;2023-04-03T20:42:34;102676.22;;;4.13;66.94
68712;BME280;55690;51.566;19.198;2023-04-03T20:46:41;102679.62;;;4.24;66.90
68712;BME280;55690;51.566;19.198;2023-04-03T20:50:47;102690.14;;;4.37;67.29
68712;BME280;55690;51.566;19.198;2023-04-03T20:54:53;102685.80;;;4.29;67.65
68712;BME280;55690;51.566;19.198;2023-04-03T20:58:59;102697.09;;;4.50;66.84
68712;BME280;55690;51.566;19.198;2023-04-03T21:03:05;102689.06;;;4.47;66.47
68712;BME280;55690;51.566;19.198;2023-04-03T21:19:59;102688.48;;;4.31;66.74
68712;BME280;55690;51.566;19.198;2023-04-03T21:24:01;102691.38;;;4.17;68.09
68712;BME280;55690;51.566;19.198;2023-04-03T21:28:06;102682.79;;;3.94;67.44
68712;BME280;55690;51.566;19.198;2023-04-03T21:32:08;102689.30;;;3.79;67.90
68712;BME280;55690;51.566;19.198;2023-04-03T21:36:09;102692.97;;;3.74;68.02
68712;BME280;55690;51.566;19.198;2023-04-03T21:40:10;102700.59;;;4.01;68.05
68712;BME280;55690;51.566;19.198;2023-04-03T21:44:12;102697.48;;;3.72;68.00
68712;BME280;55690;51.566;19.198;2023-04-03T21:48:14;102693.55;;;3.92;68.14
68712;BME280;55690;51.566;19.198;2023-04-03T21:52:20;102694.88;;;3.65;68.32
68712;BME280;55690;51.566;19.198;2023-04-03T21:56:26;102695.59;;;3.78;68.65
68712;BME280;55690;51.566;19.198;2023-04-03T22:00:32;102690.22;;;3.78;68.76
68712;BME280;55690;51.566;19.198;2023-04-03T22:04:38;102692.58;;;3.98;67.89
68712;BME280;55690;51.566;19.198;2023-04-03T22:08:44;102692.53;;;4.01;68.41
68712;BME280;55690;51.566;19.198;2023-04-03T22:12:51;102694.36;;;3.99;67.45
68712;BME280;55690;51.566;19.198;2023-04-03T22:16:57;102697.22;;;3.90;68.64
68712;BME280;55690;51.566;19.198;2023-04-03T22:21:04;102697.00;;;4.02;68.30
68712;BME280;55690;51.566;19.198;2023-04-03T22:25:09;102693.81;;;3.77;68.47
68712;BME280;55690;51.566;19.198;2023-04-03T22:29:15;102705.19;;;3.93;69.38
68712;BME280;55690;51.566;19.198;2023-04-03T22:33:22;102699.66;;;4.04;68.74
68712;BME280;55690;51.566;19.198;2023-04-03T22:37:28;102697.92;;;3.99;68.80
68712;BME280;55690;51.566;19.198;2023-04-03T22:41:34;102694.31;;;4.02;68.73
68712;BME280;55690;51.566;19.198;2023-04-03T22:45:46;102692.55;;;3.99;68.44
68712;BME280;55690;51.566;19.198;2023-04-03T22:49:48;102696.63;;;3.68;69.84
68712;BME280;55690;51.566;19.198;2023-04-03T22:53:52;102690.82;;;3.95;69.10
68712;BME280;55690;51.566;19.198;2023-04-03T22:57:59;102688.00;;;3.46;69.52
68712;BME280;55690;51.566;19.198;2023-04-03T23:02:05;102695.03;;;3.53;69.41
68712;BME280;55690;51.566;19.198;2023-04-03T23:06:11;102694.13;;;3.54;69.78
68712;BME280;55690;51.566;19.198;2023-04-03T23:10:17;102695.01;;;3.55;69.98
68712;BME280;55690;51.566;19.198;2023-04-03T23:14:24;102691.69;;;3.38;70.74
68712;BME280;55690;51.566;19.198;2023-04-03T23:18:31;102698.59;;;3.55;70.43